Time;durP1;ratioP1;P1;durP2;ratioP2;P2;SDS_P1;SDS_P2;PMS_P1;PMS_P2;Temp;Humidity;BMP_temperature;BMP_pressure;BME280_temperature;BME280_humidity;BME280_pressure;Samples;Min_cycle;Max_cycle;Signal;HPM_P1;HPM_P2
2023/04/08 00:00:34;;;;;;;31.70;22.30;;;;;;;0.21;100.00;96724.83;109406;1270;22538;-88
2023/04/08 00:03:21;;;;;;;31.60;23.20;;;;;;;0.18;100.00;96727.79;109453;1267;22632;-88
2023/04/08 00:05:53;;;;;;;31.50;22.00;;;;;;;0.13;100.00;96727.48;109610;1269;22584;-89
2023/04/08 00:08:24;;;;;;;28.50;20.70;;;;;;;0.10;100.00;96730.79;109389;1264;59075;-88
2023/04/08 00:10:56;;;;;;;31.00;21.80;;;;;;;0.07;100.00;96732.25;109234;1271;22530;-88
2023/04/08 00:13:27;;;;;;;29.30;21.90;;;;;;;0.05;100.00;96729.06;109322;1271;23273;-89
2023/04/08 00:15:59;;;;;;;28.40;21.10;;;;;;;0.02;100.00;96729.48;109237;1271;22508;-89
2023/04/08 00:18:30;;;;;;;28.60;21.10;;;;;;;-0.02;100.00;96735.09;109240;1271;61126;-89
2023/04/08 00:21:02;;;;;;;27.30;20.00;;;;;;;-0.03;100.00;96731.08;109329;1264;22531;-88
2023/04/08 00:23:33;;;;;;;26.70;20.50;;;;;;;-0.03;100.00;96731.96;109308;1271;22599;-88
2023/04/08 00:26:04;;;;;;;29.30;21.80;;;;;;;-0.04;100.00;96734.73;109221;1271;23147;-89
2023/04/08 00:28:36;;;;;;;28.60;21.10;;;;;;;-0.06;100.00;96732.95;109242;1271;57206;-88
2023/04/08 00:31:07;;;;;;;27.40;20.30;;;;;;;-0.08;100.00;96730.47;109271;1271;22566;-89
2023/04/08 00:33:39;;;;;;;25.00;18.90;;;;;;;-0.10;100.00;96732.05;109274;1271;22545;-88
2023/04/08 00:36:10;;;;;;;26.30;19.60;;;;;;;-0.11;100.00;96732.49;109280;1271;22526;-88
2023/04/08 00:38:41;;;;;;;25.20;18.20;;;;;;;-0.11;100.00;96734.59;109328;1262;74461;-89
2023/04/08 00:41:15;;;;;;;24.20;18.60;;;;;;;-0.11;100.00;96737.77;109513;1270;22527;-88
2023/04/08 00:43:46;;;;;;;23.60;18.00;;;;;;;-0.11;100.00;96739.28;109392;1264;22526;-88
2023/04/08 00:46:17;;;;;;;21.60;16.90;;;;;;;-0.10;100.00;96740.02;109478;1270;22543;-88
2023/04/08 00:48:49;;;;;;;22.80;16.50;;;;;;;-0.09;100.00;96740.63;109451;1270;58683;-88
2023/04/08 00:51:20;;;;;;;21.70;15.80;;;;;;;-0.10;100.00;96740.19;109529;1270;22513;-89
2023/04/08 00:53:52;;;;;;;20.30;15.40;;;;;;;-0.10;100.00;96740.71;109489;1270;23061;-89
2023/04/08 00:56:24;;;;;;;20.70;16.00;;;;;;;-0.11;100.00;96745.58;109445;1270;23268;-88
2023/04/08 00:58:56;;;;;;;21.00;16.00;;;;;;;-0.11;100.00;96748.81;109426;1270;134595;-89
2023/04/08 01:01:38;;;;;;;20.00;14.90;;;;;;;-0.10;100.00;96753.06;109441;1270;22525;-89
2023/04/08 01:04:20;;;;;;;18.20;14.30;;;;;;;-0.11;100.00;96758.12;109502;1264;22596;-89
2023/04/08 01:06:59;;;;;;;19.70;15.80;;;;;;;-0.16;100.00;96760.27;109423;1270;23136;-88
2023/04/08 01:09:37;;;;;;;18.40;14.30;;;;;;;-0.19;100.00;96760.02;109486;1266;48022;-89
2023/04/08 01:12:13;;;;;;;19.00;14.50;;;;;;;-0.21;100.00;96761.31;109535;1267;22556;-89
2023/04/08 01:14:47;;;;;;;19.50;14.60;;;;;;;-0.23;100.00;96762.85;109521;1270;22549;-89
2023/04/08 01:17:22;;;;;;;18.10;13.60;;;;;;;-0.26;100.00;96764.30;109402;1247;57149;-89
2023/04/08 01:19:56;;;;;;;19.10;14.40;;;;;;;-0.26;100.00;96768.27;109555;1270;22521;-89
2023/04/08 01:22:35;;;;;;;20.90;15.70;;;;;;;-0.26;100.00;96773.23;109564;1270;23166;-89
2023/04/08 01:25:09;;;;;;;21.30;15.80;;;;;;;-0.23;100.00;96771.19;109526;1270;23313;-89
2023/04/08 01:27:40;;;;;;;17.90;14.50;;;;;;;-0.21;100.00;96770.02;109495;1251;50065;-89
2023/04/08 01:30:14;;;;;;;20.30;15.20;;;;;;;-0.19;100.00;96773.56;109553;1270;22542;-88
2023/04/08 01:32:46;;;;;;;21.30;15.50;;;;;;;-0.18;100.00;96775.36;109513;1270;22511;-88
2023/04/08 01:35:18;;;;;;;21.20;14.60;;;;;;;-0.18;100.00;96775.36;109548;1270;22523;-88
2023/04/08 01:37:51;;;;;;;18.10;14.50;;;;;;;-0.18;100.00;96777.08;109465;1266;91957;-89
2023/04/08 01:40:22;;;;;;;18.90;14.90;;;;;;;-0.18;100.00;96778.85;109568;1270;22562;-88
2023/04/08 01:42:56;;;;;;;20.80;16.40;;;;;;;-0.20;100.00;96781.98;109506;1265;22684;-88
2023/04/08 01:45:28;;;;;;;18.90;14.50;;;;;;;-0.23;100.00;96777.89;109345;1249;22532;-88
2023/04/08 01:48:01;;;;;;;19.70;15.10;;;;;;;-0.24;100.00;96780.05;109302;1265;60010;-88
2023/04/08 01:50:35;;;;;;;17.80;14.30;;;;;;;-0.25;100.00;96780.77;109553;1270;24282;-88
2023/04/08 01:53:08;;;;;;;20.00;15.70;;;;;;;-0.27;100.00;96788.23;109544;1265;22776;-89
2023/04/08 01:55:40;;;;;;;19.60;15.10;;;;;;;-0.30;100.00;96782.02;109528;1270;22534;-88
2023/04/08 01:58:18;;;;;;;18.90;15.10;;;;;;;-0.31;100.00;96781.90;109507;1270;39480;-89
2023/04/08 02:00:51;;;;;;;19.10;15.30;;;;;;;-0.32;100.00;96784.31;109537;1262;22586;-88
2023/04/08 02:03:25;;;;;;;19.30;14.70;;;;;;;-0.34;100.00;96785.27;109437;1270;22547;-89
2023/04/08 02:05:56;;;;;;;19.90;15.20;;;;;;;-0.36;100.00;96786.48;109340;1265;22650;-89
2023/04/08 02:08:27;;;;;;;17.80;13.90;;;;;;;-0.40;100.00;96788.39;109451;1270;80219;-89
2023/04/08 02:10:59;;;;;;;18.60;14.20;;;;;;;-0.42;100.00;96786.63;109439;1270;24276;-88
2023/04/08 02:13:31;;;;;;;18.50;14.50;;;;;;;-0.45;100.00;96790.06;109542;1270;22981;-89
2023/04/08 02:16:10;;;;;;;17.80;14.50;;;;;;;-0.48;100.00;96790.28;109440;1270;22513;-89
2023/04/08 02:18:43;;;;;;;19.10;15.30;;;;;;;-0.50;100.00;96790.85;109471;1267;39625;-88
2023/04/08 02:21:16;;;;;;;17.80;14.20;;;;;;;-0.53;100.00;96788.90;109401;1270;22621;-88
2023/04/08 02:23:51;;;;;;;17.60;13.90;;;;;;;-0.56;100.00;96792.52;109508;1265;27775;-89
2023/04/08 02:26:24;;;;;;;18.20;13.70;;;;;;;-0.61;100.00;96796.75;109565;1270;22524;-89
2023/04/08 02:28:58;;;;;;;17.60;13.30;;;;;;;-0.66;100.00;96802.09;109495;1265;43956;-89
2023/04/08 02:31:30;;;;;;;18.10;14.40;;;;;;;-0.71;100.00;96804.13;109581;1265;22511;-87
2023/04/08 02:34:02;;;;;;;17.80;13.60;;;;;;;-0.76;100.00;96801.45;109552;1265;25336;-89
2023/04/08 02:36:34;;;;;;;20.10;15.40;;;;;;;-0.79;100.00;96797.78;109410;1270;22600;-88
2023/04/08 02:39:05;;;;;;;19.20;15.10;;;;;;;-0.84;100.00;96800.59;109488;1270;41519;-88
2023/04/08 02:41:36;;;;;;;18.30;14.00;;;;;;;-0.88;100.00;96798.95;109382;1262;22561;-89
2023/04/08 02:44:08;;;;;;;18.40;15.00;;;;;;;-0.92;100.00;96801.19;109493;1270;25316;-89
2023/04/08 02:46:39;;;;;;;18.90;14.60;;;;;;;-0.97;100.00;96800.63;109421;1270;26403;-90
2023/04/08 02:49:10;;;;;;;19.10;15.20;;;;;;;-0.99;100.00;96806.46;109530;1270;44859;-89
2023/04/08 02:51:41;;;;;;;19.40;14.80;;;;;;;-1.02;100.00;96807.55;109542;1270;25453;-89
2023/04/08 02:54:12;;;;;;;21.40;15.90;;;;;;;-1.06;100.00;96808.23;109590;1270;22615;-89
2023/04/08 02:56:43;;;;;;;20.40;15.30;;;;;;;-1.08;100.00;96810.98;109539;1270;22555;-90
2023/04/08 02:59:15;;;;;;;19.90;14.90;;;;;;;-1.12;100.00;96813.56;109541;1264;27021;-88
2023/04/08 03:01:46;;;;;;;19.40;13.70;;;;;;;-1.15;100.00;96813.05;109454;1268;22511;-89
2023/04/08 03:04:17;;;;;;;17.60;13.70;;;;;;;-1.17;100.00;96815.79;109506;1262;22524;-89
2023/04/08 03:06:48;;;;;;;17.10;13.30;;;;;;;-1.19;100.00;96811.83;109583;1270;22562;-89
2023/04/08 03:09:20;;;;;;;18.00;13.20;;;;;;;-1.23;100.00;96810.70;109504;1268;70601;-88
2023/04/08 03:11:53;;;;;;;16.80;13.30;;;;;;;-1.27;100.00;96814.42;109331;1270;22565;-89
2023/04/08 03:14:24;;;;;;;17.70;13.30;;;;;;;-1.30;100.00;96815.45;109540;1270;22591;-89
2023/04/08 03:16:55;;;;;;;18.20;13.70;;;;;;;-1.31;100.00;96816.33;109397;1270;22547;-89
2023/04/08 03:19:26;;;;;;;16.90;13.00;;;;;;;-1.32;100.00;96817.01;109537;1270;42377;-90
2023/04/08 03:21:57;;;;;;;15.40;12.80;;;;;;;-1.34;100.00;96821.05;109589;1264;22537;-89
2023/04/08 03:24:30;;;;;;;14.20;11.20;;;;;;;-1.36;100.00;96822.17;109553;1270;24276;-90
2023/04/08 03:27:01;;;;;;;14.90;12.50;;;;;;;-1.39;100.00;96826.41;109516;1270;27617;-89
2023/04/08 03:29:32;;;;;;;15.90;11.50;;;;;;;-1.43;100.00;96831.34;109481;1267;37713;-90
2023/04/08 03:32:03;;;;;;;18.30;13.40;;;;;;;-1.46;100.00;96831.82;109616;1263;22563;-90
2023/04/08 03:34:35;;;;;;;17.10;13.10;;;;;;;-1.49;100.00;96835.27;109574;1270;22550;-90
2023/04/08 03:37:07;;;;;;;17.90;14.20;;;;;;;-1.50;100.00;96834.27;109527;1268;22517;-89
2023/04/08 03:39:38;;;;;;;19.20;14.60;;;;;;;-1.53;100.00;96834.38;109551;1270;23013;-90
2023/04/08 03:42:09;;;;;;;21.40;15.90;;;;;;;-1.51;100.00;96842.63;109523;1270;22527;-90
2023/04/08 03:44:40;;;;;;;17.90;14.80;;;;;;;-1.51;100.00;96843.34;109500;1270;22527;-90
2023/04/08 03:47:11;;;;;;;21.50;16.20;;;;;;;-1.52;100.00;96848.30;109495;1270;24404;-89
2023/04/08 03:49:43;;;;;;;19.80;14.30;;;;;;;-1.56;100.00;96847.70;109420;1270;22530;-90
2023/04/08 03:52:14;;;;;;;21.00;16.00;;;;;;;-1.60;100.00;96850.30;109521;1267;22518;-89
2023/04/08 03:54:45;;;;;;;20.10;14.70;;;;;;;-1.62;100.00;96858.46;109553;1267;25009;-90
2023/04/08 03:57:16;;;;;;;21.20;16.10;;;;;;;-1.62;100.00;96861.06;109459;1270;51423;-90
2023/04/08 03:59:47;;;;;;;21.60;16.20;;;;;;;-1.60;100.00;96866.53;109507;1270;22518;-90
2023/04/08 04:02:18;;;;;;;19.50;15.20;;;;;;;-1.60;100.00;96865.94;109538;1270;22532;-89
2023/04/08 04:04:49;;;;;;;21.20;15.50;;;;;;;-1.58;100.00;96862.77;109580;1270;22504;-90
2023/04/08 04:07:20;;;;;;;20.10;15.60;;;;;;;-1.57;100.00;96860.90;109444;1270;60614;-90
2023/04/08 04:09:54;;;;;;;20.70;15.50;;;;;;;-1.58;100.00;96862.66;109493;1264;22617;-90
2023/04/08 04:12:26;;;;;;;20.70;15.40;;;;;;;-1.63;100.00;96868.09;109397;1268;22564;-90
2023/04/08 04:14:57;;;;;;;23.00;15.20;;;;;;;-1.67;100.00;96868.77;109551;1270;22502;-90
2023/04/08 04:17:28;;;;;;;19.90;15.20;;;;;;;-1.70;100.00;96870.37;109517;1270;35723;-89
2023/04/08 04:20:00;;;;;;;21.00;15.60;;;;;;;-1.65;100.00;96873.73;109501;1270;23362;-90
2023/04/08 04:22:31;;;;;;;21.20;16.70;;;;;;;-1.34;100.00;96875.46;109390;1270;24270;-90
2023/04/08 04:25:02;;;;;;;22.90;16.90;;;;;;;-0.62;100.00;96880.30;109581;1270;25234;-91
2023/04/08 04:27:34;;;;;;;21.80;18.00;;;;;;;0.14;100.00;96879.79;109412;1267;95443;-89
2023/04/08 04:30:08;;;;;;;21.60;17.60;;;;;;;0.89;100.00;96881.90;109520;1270;23184;-91
2023/04/08 04:32:39;;;;;;;19.70;15.90;;;;;;;1.53;100.00;96884.38;109563;1270;22523;-89
2023/04/08 04:35:11;;;;;;;18.70;15.40;;;;;;;2.00;100.00;96886.17;109528;1270;22575;-89
2023/04/08 04:37:51;;;;;;;16.10;13.40;;;;;;;2.49;100.00;96889.83;109435;1270;45349;-90
2023/04/08 04:40:22;;;;;;;16.40;13.80;;;;;;;3.33;100.00;96887.85;109592;1267;22563;-89
2023/04/08 04:42:54;;;;;;;39.40;30.30;;;;;;;4.13;100.00;96889.54;109479;1270;25429;-89
2023/04/08 04:45:26;;;;;;;34.80;28.20;;;;;;;4.89;99.75;96888.38;109558;1268;22457;-90
2023/04/08 04:47:57;;;;;;;20.40;16.70;;;;;;;5.59;97.65;96883.58;109437;1271;62848;-89
2023/04/08 04:50:29;;;;;;;16.00;14.00;;;;;;;6.18;95.94;96885.63;109308;1271;22556;-90
2023/04/08 04:53:00;;;;;;;16.60;14.70;;;;;;;6.14;90.75;96883.45;109293;1268;22789;-90
2023/04/08 04:55:31;;;;;;;17.90;15.60;;;;;;;5.84;89.27;96887.27;109338;1271;22670;-90
2023/04/08 04:58:02;;;;;;;16.10;14.40;;;;;;;6.05;89.61;96888.60;109336;1255;45601;-90
2023/04/08 05:00:33;;;;;;;14.50;12.90;;;;;;;6.51;89.41;96887.98;109355;1270;22654;-89
2023/04/08 05:03:05;;;;;;;13.00;11.60;;;;;;;6.98;88.93;96887.09;109503;1270;25446;-90
2023/04/08 05:05:36;;;;;;;14.70;12.60;;;;;;;7.74;88.70;96885.92;109457;1268;22522;-89
2023/04/08 05:08:10;;;;;;;15.20;13.20;;;;;;;8.63;88.86;96885.86;109256;1266;39909;-89
2023/04/08 05:10:43;;;;;;;14.70;13.20;;;;;;;9.65;87.52;96890.04;109396;1255;22539;-89
2023/04/08 05:13:17;;;;;;;14.30;12.90;;;;;;;10.52;85.76;96894.33;109346;1270;22672;-89
2023/04/08 05:15:49;;;;;;;14.70;13.10;;;;;;;10.94;83.21;96896.16;109292;1270;22536;-89
2023/04/08 05:18:21;;;;;;;12.40;11.10;;;;;;;11.45;81.94;96895.92;109506;1269;69943;-89
2023/04/08 05:20:52;;;;;;;11.20;10.10;;;;;;;12.22;81.25;96894.81;109552;1269;22525;-88
2023/04/08 05:23:23;;;;;;;10.00;9.00;;;;;;;12.78;77.69;96898.03;109564;1268;24431;-87
2023/04/08 05:25:55;;;;;;;9.90;9.00;;;;;;;12.91;73.85;96899.46;109614;1269;22516;-87
2023/04/08 05:28:27;;;;;;;10.10;9.10;;;;;;;12.80;70.56;96905.98;109514;1267;74399;-87
2023/04/08 05:30:58;;;;;;;9.00;8.20;;;;;;;12.86;69.26;96905.98;109581;1267;22515;-87
2023/04/08 05:33:30;;;;;;;9.60;8.60;;;;;;;12.96;68.43;96908.61;109558;1261;22526;-89
2023/04/08 05:36:01;;;;;;;10.10;8.00;;;;;;;13.07;66.45;96911.92;109548;1269;22518;-87
2023/04/08 05:38:32;;;;;;;9.40;8.50;;;;;;;13.26;64.77;96915.92;109454;1270;73241;-86
2023/04/08 05:41:04;;;;;;;10.10;9.10;;;;;;;13.36;63.46;96925.90;109607;1268;22513;-87
2023/04/08 05:43:36;;;;;;;10.00;9.00;;;;;;;13.43;61.93;96924.20;109617;1269;22663;-86
2023/04/08 05:46:10;;;;;;;9.30;8.40;;;;;;;13.53;59.21;96936.08;109567;1270;22577;-86
2023/04/08 05:48:41;;;;;;;9.80;8.80;;;;;;;13.74;59.81;96935.35;109502;1270;53182;-86
2023/04/08 05:51:17;;;;;;;9.40;8.30;;;;;;;14.39;60.13;96937.05;109551;1270;24302;-87
2023/04/08 05:53:48;;;;;;;9.50;8.50;;;;;;;15.16;60.30;96933.02;109561;1270;22540;-86
2023/04/08 05:56:20;;;;;;;10.10;9.10;;;;;;;15.77;58.85;96943.09;109540;1270;23172;-86
2023/04/08 05:58:51;;;;;;;9.80;8.80;;;;;;;16.06;58.02;96942.98;109506;1269;86261;-86
2023/04/08 06:01:23;;;;;;;9.90;8.90;;;;;;;16.73;57.76;96947.04;109520;1270;27724;-87
2023/04/08 06:03:57;;;;;;;10.00;9.00;;;;;;;17.33;56.82;96947.40;109577;1270;23213;-87
2023/04/08 06:06:28;;;;;;;13.20;12.00;;;;;;;18.05;55.82;96953.84;109517;1269;22546;-88
2023/04/08 06:08:59;;;;;;;12.40;11.30;;;;;;;18.71;55.08;96954.34;109533;1262;49517;-87
2023/04/08 06:11:31;;;;;;;10.30;9.30;;;;;;;19.36;54.09;96952.54;109610;1269;24525;-87
2023/04/08 06:14:02;;;;;;;13.60;12.40;;;;;;;19.94;53.16;96954.64;109593;1269;22514;-87
2023/04/08 06:16:36;;;;;;;10.30;9.40;;;;;;;20.49;52.42;96954.34;109438;1269;23317;-87
2023/04/08 06:19:07;;;;;;;10.40;9.50;;;;;;;21.18;51.90;96954.17;109355;1270;47679;-87
2023/04/08 06:21:39;;;;;;;9.60;8.70;;;;;;;21.86;50.29;96956.92;109328;1269;22527;-87
2023/04/08 06:24:10;;;;;;;8.90;8.10;;;;;;;22.39;49.29;96963.41;109555;1269;22525;-87
2023/04/08 06:26:41;;;;;;;9.50;8.60;;;;;;;22.80;46.97;96966.25;109496;1270;22555;-87
2023/04/08 06:29:12;;;;;;;9.30;8.40;;;;;;;20.96;42.63;96967.63;109460;1270;66731;-87
2023/04/08 06:31:43;;;;;;;9.00;8.20;;;;;;;19.29;45.31;96969.38;109539;1270;23117;-87
2023/04/08 06:34:15;;;;;;;9.20;8.30;;;;;;;19.47;45.43;96972.02;109599;1269;22664;-87
2023/04/08 06:36:47;;;;;;;9.20;8.40;;;;;;;19.59;45.44;96973.95;109529;1270;22538;-87
2023/04/08 06:39:20;;;;;;;9.40;8.50;;;;;;;19.27;44.59;96970.84;109454;1269;60812;-87
2023/04/08 06:41:51;;;;;;;9.30;8.30;;;;;;;19.41;45.52;96972.06;109563;1269;22528;-87
2023/04/08 06:44:22;;;;;;;8.30;7.50;;;;;;;20.66;45.76;96965.72;109424;1263;24332;-86
2023/04/08 06:46:53;;;;;;;8.00;7.30;;;;;;;21.95;44.74;96969.53;109569;1269;22646;-86
2023/04/08 06:49:25;;;;;;;11.00;10.00;;;;;;;21.86;40.40;96970.94;109296;1270;62616;-86
2023/04/08 06:51:57;;;;;;;10.10;8.60;;;;;;;22.04;42.13;96977.11;109520;1270;22530;-86
2023/04/08 06:54:29;;;;;;;8.70;7.90;;;;;;;22.56;42.58;96976.59;109326;1270;22465;-86
2023/04/08 06:57:02;;;;;;;7.90;7.20;;;;;;;23.71;42.18;96970.21;109530;1268;22557;-86
2023/04/08 06:59:34;;;;;;;8.40;7.60;;;;;;;24.48;39.47;96964.67;109480;1269;47955;-86
2023/04/08 07:02:05;;;;;;;8.40;7.70;;;;;;;23.89;36.43;96967.52;109521;1270;22549;-86
2023/04/08 07:04:36;;;;;;;7.90;7.20;;;;;;;23.28;36.08;96974.05;109493;1270;23285;-86
2023/04/08 07:07:08;;;;;;;7.80;7.10;;;;;;;22.07;34.95;96978.48;109516;1268;22996;-86
2023/04/08 07:09:42;;;;;;;7.90;7.20;;;;;;;21.11;35.84;96980.98;109534;1269;22520;-86
2023/04/08 07:12:13;;;;;;;7.90;7.20;;;;;;;20.49;33.71;96984.09;109652;1269;22527;-86
2023/04/08 07:14:45;;;;;;;8.00;7.30;;;;;;;19.37;35.07;96984.81;109529;1269;22508;-86
2023/04/08 07:17:16;;;;;;;8.70;7.90;;;;;;;19.19;37.71;96984.73;109450;1264;83229;-85
2023/04/08 07:19:48;;;;;;;8.20;7.30;;;;;;;20.17;37.87;96979.35;109349;1263;22533;-86
2023/04/08 07:22:20;;;;;;;8.20;7.40;;;;;;;20.53;33.17;96990.38;109367;1266;25306;-88
2023/04/08 07:24:51;;;;;;;9.80;8.90;;;;;;;19.54;35.48;96996.80;109381;1270;22526;-87
2023/04/08 07:27:22;;;;;;;9.00;8.10;;;;;;;19.58;37.39;96999.79;109479;1270;77298;-85
2023/04/08 07:29:56;;;;;;;11.30;10.30;;;;;;;18.78;37.44;97005.19;109510;1270;22532;-86
2023/04/08 07:32:28;;;;;;;9.30;8.50;;;;;;;18.70;38.74;97004.11;109504;1269;22677;-86
2023/04/08 07:35:00;;;;;;;6.90;6.30;;;;;;;20.39;39.15;97002.41;109466;1269;22544;-86
2023/04/08 07:37:32;;;;;;;7.80;7.20;;;;;;;21.52;36.04;96997.48;109433;1270;34024;-86
2023/04/08 07:40:03;;;;;;;6.90;6.30;;;;;;;20.43;36.18;97002.73;109463;1270;22535;-86
2023/04/08 07:42:34;;;;;;;6.80;6.20;;;;;;;19.85;34.49;97006.25;109392;1270;22618;-86
2023/04/08 07:45:07;;;;;;;7.10;6.50;;;;;;;18.79;33.76;97010.40;109423;1270;22540;-87
2023/04/08 07:47:38;;;;;;;6.90;6.20;;;;;;;17.15;35.24;97012.30;109254;1267;54239;-86
2023/04/08 07:50:11;;;;;;;7.30;6.60;;;;;;;15.66;36.42;97015.28;109373;1270;22515;-86
2023/04/08 07:52:42;;;;;;;8.00;7.20;;;;;;;14.73;39.25;97018.55;109478;1270;22626;-85
2023/04/08 07:55:13;;;;;;;8.20;7.40;;;;;;;14.75;40.24;97013.32;109441;1270;22518;-86
2023/04/08 07:57:44;;;;;;;8.40;7.70;;;;;;;15.48;41.19;97005.54;109473;1267;52387;-86
2023/04/08 08:00:20;;;;;;;8.90;8.00;;;;;;;16.97;41.52;97001.69;109541;1270;22668;-86
2023/04/08 08:02:51;;;;;;;7.80;7.10;;;;;;;18.40;39.45;97008.71;109517;1270;22520;-87
2023/04/08 08:05:23;;;;;;;7.70;7.00;;;;;;;18.64;38.80;97004.68;109512;1269;24362;-87
2023/04/08 08:07:58;;;;;;;8.40;7.70;;;;;;;19.75;38.96;97004.58;109419;1270;47185;-86
2023/04/08 08:10:32;;;;;;;7.10;6.50;;;;;;;20.39;37.59;97007.29;109257;1271;23114;-86
2023/04/08 08:13:05;;;;;;;7.70;7.00;;;;;;;21.22;36.89;97009.09;109431;1263;22738;-86
2023/04/08 08:15:37;;;;;;;8.30;7.50;;;;;;;22.53;37.38;97010.92;109439;1270;22590;-86
2023/04/08 08:18:09;;;;;;;11.30;10.20;;;;;;;23.73;37.09;97012.80;109391;1262;105794;-86
2023/04/08 08:20:40;;;;;;;20.50;18.50;;;;;;;24.83;36.07;97016.64;109515;1264;22535;-85
2023/04/08 08:23:12;;;;;;;13.50;12.10;;;;;;;24.59;31.26;97021.59;109489;1270;22641;-85
2023/04/08 08:25:44;;;;;;;15.00;13.40;;;;;;;24.24;34.22;97021.95;109352;1270;22528;-86
2023/04/08 08:28:15;;;;;;;11.40;10.30;;;;;;;24.66;34.20;97022.23;109398;1270;57854;-86
2023/04/08 08:30:48;;;;;;;11.60;10.40;;;;;;;24.69;34.18;97021.98;109307;1270;22510;-86
2023/04/08 08:33:19;;;;;;;12.50;11.30;;;;;;;25.08;32.83;97020.12;109169;1271;166090;-86
2023/04/08 08:35:50;;;;;;;7.70;7.00;;;;;;;23.55;29.32;97023.83;109525;1269;22508;-85
2023/04/08 08:38:21;;;;;;;17.20;15.60;;;;;;;21.40;32.11;97023.15;109391;1270;50554;-85
2023/04/08 08:40:57;;;;;;;16.70;15.00;;;;;;;21.78;33.42;97021.69;109283;1271;25290;-88
2023/04/08 08:43:32;;;;;;;15.70;14.10;;;;;;;21.62;34.47;97022.67;109298;1256;22523;-86
2023/04/08 08:46:03;;;;;;;9.30;8.20;;;;;;;21.52;34.26;97023.92;109226;1271;22726;-85
2023/04/08 08:48:37;;;;;;;7.90;7.20;;;;;;;20.57;34.63;97023.13;109361;1270;71443;-85
2023/04/08 08:51:12;;;;;;;6.60;6.00;;;;;;;19.96;34.99;97027.64;109488;1270;22520;-85
2023/04/08 08:53:44;;;;;;;7.30;6.60;;;;;;;18.34;35.34;97028.48;109510;1270;22578;-85
2023/04/08 08:56:17;;;;;;;8.20;6.90;;;;;;;17.26;36.96;97025.42;109350;1269;22516;-86
2023/04/08 08:58:49;;;;;;;6.70;6.00;;;;;;;16.22;36.90;97030.23;109461;1270;50997;-83
2023/04/08 09:01:35;;;;;;;6.90;6.20;;;;;;;14.26;37.65;97034.16;109518;1270;22619;-87
2023/04/08 09:04:18;;;;;;;8.10;7.30;;;;;;;13.60;40.37;97035.29;109532;1270;22651;-84
2023/04/08 09:07:04;;;;;;;9.30;8.40;;;;;;;13.77;40.94;97038.17;109452;1269;22605;-85
2023/04/08 09:09:50;;;;;;;7.70;6.60;;;;;;;13.65;41.72;97040.15;109462;1270;75784;-86
2023/04/08 09:12:22;;;;;;;7.70;6.70;;;;;;;13.44;41.93;97041.30;109507;1270;22560;-85
2023/04/08 09:15:05;;;;;;;8.90;7.50;;;;;;;13.15;42.70;97042.29;109497;1269;22591;-85
2023/04/08 09:17:40;;;;;;;8.40;7.30;;;;;;;12.60;43.13;97045.12;109382;1270;42791;-86
2023/04/08 09:20:14;;;;;;;8.70;7.50;;;;;;;11.98;43.56;97050.17;109514;1270;24230;-84
2023/04/08 09:23:03;;;;;;;8.70;7.80;;;;;;;11.61;44.57;97045.21;109498;1270;22670;-84
2023/04/08 09:25:34;;;;;;;10.20;7.70;;;;;;;11.24;45.67;97045.05;109533;1270;23175;-85
2023/04/08 09:28:18;;;;;;;9.50;8.30;;;;;;;10.96;46.42;97049.48;109296;1270;42454;-84
2023/04/08 09:30:49;;;;;;;9.10;8.10;;;;;;;10.78;47.28;97054.41;109270;1271;25753;-84
2023/04/08 09:33:30;;;;;;;11.30;9.80;;;;;;;10.86;47.93;97051.00;109207;1270;24404;-85
2023/04/08 09:36:01;;;;;;;10.00;8.20;;;;;;;10.95;48.52;97053.04;109180;1271;22551;-85
2023/04/08 09:38:33;;;;;;;8.30;7.40;;;;;;;10.99;48.15;97057.02;109240;1264;52750;-83
2023/04/08 09:41:08;;;;;;;9.60;8.60;;;;;;;10.66;48.43;97061.06;109279;1271;22531;-83
2023/04/08 09:43:48;;;;;;;9.30;8.40;;;;;;;10.44;49.42;97064.20;109525;1265;22578;-84
2023/04/08 09:46:25;;;;;;;10.40;9.10;;;;;;;10.21;49.65;97060.16;109293;1271;22986;-84
2023/04/08 09:49:05;;;;;;;10.90;9.50;;;;;;;9.89;50.19;97062.59;109178;1264;60619;-84
2023/04/08 09:51:45;;;;;;;10.50;8.80;;;;;;;9.80;51.17;97061.73;109280;1271;23071;-84
2023/04/08 09:54:19;;;;;;;9.50;8.40;;;;;;;9.69;51.40;97058.73;109254;1271;22541;-84
2023/04/08 09:56:58;;;;;;;9.80;8.60;;;;;;;9.31;51.32;97056.65;109278;1271;22624;-83
2023/04/08 09:59:35;;;;;;;10.30;8.50;;;;;;;8.76;52.72;97060.76;109208;1265;40530;-84
2023/04/08 10:02:10;;;;;;;10.50;9.40;;;;;;;8.62;53.54;97062.79;109281;1271;22627;-83
2023/04/08 10:04:44;;;;;;;10.60;9.20;;;;;;;8.48;54.22;97064.11;109295;1264;24914;-85
2023/04/08 10:07:15;;;;;;;11.20;8.90;;;;;;;8.33;54.74;97068.05;109200;1269;64134;-85
2023/04/08 10:09:48;;;;;;;11.20;9.40;;;;;;;8.05;55.65;97066.36;109309;1271;22541;-85
2023/04/08 10:12:20;;;;;;;10.80;8.50;;;;;;;8.09;56.07;97067.24;109197;1271;22562;-83
2023/04/08 10:15:28;;;;;;;10.70;9.40;;;;;;;8.26;56.76;97064.34;109265;1271;23675;-83
2023/04/08 10:18:31;;;;;;;11.10;9.40;;;;;;;8.45;56.68;97064.67;109178;1271;53664;-84
2023/04/08 10:21:03;;;;;;;11.60;10.20;;;;;;;8.23;56.57;97069.34;109227;1271;22531;-84
2023/04/08 10:23:58;;;;;;;11.20;9.10;;;;;;;7.84;57.37;97073.56;109231;1271;22948;-84
2023/04/08 10:26:38;;;;;;;12.20;9.80;;;;;;;7.94;58.05;97075.13;109150;1264;23460;-85
2023/04/08 10:29:33;;;;;;;12.10;9.80;;;;;;;8.11;57.88;97071.17;109256;1271;68040;-86
2023/04/08 10:32:05;;;;;;;12.50;9.40;;;;;;;8.20;58.35;97073.05;109303;1271;22560;-85
2023/04/08 10:34:51;;;;;;;11.40;9.70;;;;;;;8.24;58.46;97068.02;109299;1271;22527;-85
2023/04/08 10:37:23;;;;;;;10.40;9.10;;;;;;;8.16;58.03;97075.33;109216;1270;43905;-85
2023/04/08 10:40:04;;;;;;;12.50;10.40;;;;;;;8.05;58.43;97080.73;109208;1271;22517;-85
2023/04/08 10:42:47;;;;;;;13.10;11.30;;;;;;;7.88;58.54;97081.30;109255;1271;26516;-85
2023/04/08 10:45:20;;;;;;;12.70;10.40;;;;;;;7.61;58.81;97086.14;109234;1264;22519;-84
2023/04/08 10:47:51;;;;;;;12.00;10.70;;;;;;;7.40;59.05;97091.02;109203;1271;41808;-85
2023/04/08 10:50:23;;;;;;;15.60;12.70;;;;;;;7.16;59.53;97091.14;109242;1266;22537;-84
2023/04/08 10:52:56;;;;;;;14.00;12.10;;;;;;;6.92;60.19;97095.34;109268;1263;22515;-85
2023/04/08 10:55:28;;;;;;;14.50;12.30;;;;;;;6.71;60.74;97096.27;109302;1271;22583;-84
2023/04/08 10:58:07;;;;;;;20.90;15.90;;;;;;;6.57;61.37;97098.89;109230;1264;58746;-85
2023/04/08 11:00:40;;;;;;;22.80;17.70;;;;;;;6.56;61.86;97100.20;109230;1271;22548;-84
2023/04/08 11:03:13;;;;;;;20.50;15.40;;;;;;;6.62;62.12;97096.92;109247;1271;22565;-86
2023/04/08 11:05:44;;;;;;;15.10;13.00;;;;;;;6.63;62.36;97094.63;109299;1271;25415;-85
2023/04/08 11:08:16;;;;;;;17.10;14.50;;;;;;;6.64;62.49;97091.41;109234;1268;56302;-84
2023/04/08 11:10:48;;;;;;;18.20;15.10;;;;;;;6.64;62.72;97087.06;109247;1264;22531;-85
2023/04/08 11:13:21;;;;;;;15.80;13.40;;;;;;;6.70;63.45;97082.17;109269;1264;22546;-85
2023/04/08 11:15:55;;;;;;;15.70;14.10;;;;;;;6.68;63.56;97087.89;109216;1271;22548;-85
2023/04/08 11:18:27;;;;;;;15.90;14.20;;;;;;;6.78;64.31;97086.98;109226;1271;46031;-85
2023/04/08 11:20:59;;;;;;;18.00;15.70;;;;;;;6.86;64.46;97085.40;109194;1271;22536;-85
2023/04/08 11:23:31;;;;;;;20.30;16.30;;;;;;;6.85;64.35;97082.86;109243;1271;23273;-84
2023/04/08 11:26:03;;;;;;;18.30;15.50;;;;;;;6.82;64.66;97079.98;109279;1268;22543;-85
2023/04/08 11:28:37;;;;;;;18.30;15.60;;;;;;;6.86;65.10;97082.45;109238;1271;48935;-85
2023/04/08 11:31:08;;;;;;;20.50;17.60;;;;;;;6.90;65.32;97076.91;109289;1269;22581;-84
2023/04/08 11:33:44;;;;;;;24.60;20.60;;;;;;;6.91;65.70;97074.52;109307;1264;22556;-86
2023/04/08 11:36:17;;;;;;;22.30;18.60;;;;;;;6.92;66.14;97076.13;109270;1264;22522;-86
2023/04/08 11:38:49;;;;;;;23.10;19.10;;;;;;;6.91;66.45;97077.42;109294;1271;47859;-86
2023/04/08 11:41:21;;;;;;;25.40;20.80;;;;;;;6.91;66.62;97076.36;109268;1264;22514;-85